Time;durP1;ratioP1;P1;durP2;ratioP2;P2;SDS_P1;SDS_P2;PMS_P1;PMS_P2;Temp;Humidity;BMP_temperature;BMP_pressure;BME280_temperature;BME280_humidity;BME280_pressure;Samples;Min_cycle;Max_cycle;Signal;HPM_P1;HPM_P2
2023/09/20 00:01:58;;;;;;;11.77;2.92;;;;;;;-146.27;77.83;81373.88;5046731;28;20029;-70
2023/09/20 00:04:23;;;;;;;11.50;2.40;;;;;;;-146.27;78.16;81412.03;5046138;28;20516;-70
2023/09/20 00:06:49;;;;;;;7.60;2.25;;;;;;;-146.27;78.47;81436.16;5043316;28;20607;-69
2023/09/20 00:09:16;;;;;;;8.88;2.70;;;;;;;-146.27;78.08;81400.00;5044550;28;20454;-69
2023/09/20 00:11:44;;;;;;;11.02;2.20;;;;;;;-146.27;78.37;81416.06;5045217;28;20116;-69
2023/09/20 00:14:10;;;;;;;11.02;2.65;;;;;;;-146.27;78.46;81484.34;5049992;28;20033;-69
2023/09/20 00:16:35;;;;;;;10.43;2.50;;;;;;;-146.27;78.85;81532.53;5044348;28;20047;-69
2023/09/20 00:19:00;;;;;;;12.38;2.63;;;;;;;-146.27;78.95;81524.50;5047860;28;20024;-69
2023/09/20 00:21:26;;;;;;;16.48;2.78;;;;;;;-146.27;79.66;81558.66;5043960;28;20056;-69
2023/09/20 00:23:51;;;;;;;10.93;2.70;;;;;;;-146.27;79.31;81558.66;5037370;28;20082;-69
2023/09/20 00:26:18;;;;;;;8.05;2.30;;;;;;;-146.27;79.10;81504.44;5041298;28;21505;-69
2023/09/20 00:28:48;;;;;;;8.82;2.50;;;;;;;-146.27;79.22;81520.50;5039022;28;20078;-69
2023/09/20 00:31:15;;;;;;;12.05;2.47;;;;;;;-146.27;79.38;81506.44;5046033;28;20032;-69
2023/09/20 00:33:40;;;;;;;10.02;2.88;;;;;;;-146.27;80.23;81518.50;5053517;28;20048;-71
2023/09/20 00:36:06;;;;;;;10.82;2.80;;;;;;;-146.27;79.80;81528.53;5049278;28;20036;-70
2023/09/20 00:38:31;;;;;;;16.00;3.45;;;;;;;-146.27;79.31;81516.47;5044982;28;20033;-70
2023/09/20 00:40:57;;;;;;;11.43;2.80;;;;;;;-146.27;80.35;81576.72;5048341;28;20025;-70
2023/09/20 00:43:25;;;;;;;13.73;2.92;;;;;;;-146.27;80.17;81576.72;5042391;28;20033;-69
2023/09/20 00:45:51;;;;;;;12.07;3.13;;;;;;;-146.27;80.01;81548.59;5036039;28;20391;-72
2023/09/20 00:48:18;;;;;;;17.33;3.00;;;;;;;-146.27;80.10;81544.59;5040108;28;20448;-70
2023/09/20 00:50:44;;;;;;;8.73;2.65;;;;;;;-146.27;79.29;81500.41;5039123;28;20025;-69
2023/09/20 00:53:13;;;;;;;7.53;2.40;;;;;;;-146.27;78.63;81432.13;5032656;28;20032;-69
2023/09/20 00:55:42;;;;;;;8.18;3.17;;;;;;;-146.27;80.56;81614.88;5046915;28;20116;-69
2023/09/20 00:58:14;;;;;;;9.27;2.38;;;;;;;-146.27;80.49;81612.88;5036041;28;20033;-69
2023/09/20 01:00:43;;;;;;;11.07;2.53;;;;;;;-146.27;80.34;81602.84;5036311;28;20532;-69
2023/09/20 01:03:09;;;;;;;12.23;4.07;;;;;;;-146.27;79.88;81526.53;5043554;28;20048;-69
2023/09/20 01:05:36;;;;;;;11.60;2.90;;;;;;;-146.27;78.95;81492.38;5045550;28;20029;-69
2023/09/20 01:08:03;;;;;;;10.10;2.90;;;;;;;-146.27;78.70;81480.31;5045182;28;20111;-67
2023/09/20 01:10:31;;;;;;;10.27;2.75;;;;;;;-146.27;79.33;81520.50;5042303;28;20104;-70
2023/09/20 01:12:58;;;;;;;12.23;3.25;;;;;;;-146.27;80.22;81546.59;5045461;28;20492;-71
2023/09/20 01:15:26;;;;;;;20.88;3.42;;;;;;;-146.27;79.14;81516.47;5042456;28;20041;-71
2023/09/20 01:17:57;;;;;;;9.43;2.65;;;;;;;-146.27;78.87;81478.31;5045527;28;20374;-70
2023/09/20 01:20:24;;;;;;;10.27;2.42;;;;;;;-146.27;78.70;81500.41;5044421;28;20052;-70
2023/09/20 01:22:54;;;;;;;8.48;2.90;;;;;;;-146.27;79.53;81588.78;5041446;28;20436;-70
2023/09/20 01:25:30;;;;;;;12.52;2.90;;;;;;;-146.27;78.16;81462.25;5044791;28;20116;-70
2023/09/20 01:28:00;;;;;;;17.92;3.63;;;;;;;-146.27;78.05;81391.97;5035977;28;20029;-70
2023/09/20 01:30:28;;;;;;;10.30;4.00;;;;;;;-146.27;77.39;81408.03;5032406;28;20116;-70
2023/09/20 01:32:58;;;;;;;14.30;2.92;;;;;;;-146.27;76.71;81404.00;5042704;28;20061;-71
2023/09/20 01:35:25;;;;;;;15.32;3.15;;;;;;;-146.27;77.10;81460.25;5053604;28;20359;-70
2023/09/20 01:37:51;;;;;;;14.23;3.25;;;;;;;-146.27;76.69;81408.03;5048075;28;20076;-69
2023/09/20 01:40:19;;;;;;;11.07;2.90;;;;;;;-146.27;77.07;81504.44;5068454;28;20025;-69
2023/09/20 01:42:48;;;;;;;10.13;2.78;;;;;;;-146.27;76.43;81448.19;5044555;28;20380;-70
2023/09/20 01:45:15;;;;;;;12.60;3.15;;;;;;;-146.27;76.10;81400.00;5038911;28;20128;-70
2023/09/20 01:47:45;;;;;;;9.68;3.03;;;;;;;-146.27;76.41;81476.31;5042390;28;20074;-69
2023/09/20 01:50:12;;;;;;;10.77;2.95;;;;;;;-146.27;75.75;81440.16;5036217;28;20538;-69
2023/09/20 01:52:38;;;;;;;13.02;3.22;;;;;;;-146.27;75.21;81387.94;5040743;28;20029;-70
2023/09/20 01:55:08;;;;;;;18.55;2.85;;;;;;;-146.27;75.48;81438.16;5041341;28;20389;-70
2023/09/20 01:57:33;;;;;;;8.65;3.03;;;;;;;-146.27;76.01;81512.47;5036966;28;20036;-69
2023/09/20 01:59:59;;;;;;;16.63;2.95;;;;;;;-146.27;75.83;81496.41;5032401;28;20025;-69
2023/09/20 02:02:24;;;;;;;8.80;2.88;;;;;;;-146.27;75.10;81420.06;5042643;28;20163;-69
2023/09/20 02:04:50;;;;;;;10.93;3.08;;;;;;;-146.27;74.39;81361.84;5043626;28;20116;-69
2023/09/20 02:07:15;;;;;;;17.83;3.40;;;;;;;-146.27;75.32;81468.28;5048844;28;20201;-69
2023/09/20 02:09:41;;;;;;;12.85;3.22;;;;;;;-146.27;74.48;81359.81;5043052;28;20552;-69
2023/09/20 02:12:06;;;;;;;10.25;2.70;;;;;;;-146.27;74.27;81359.81;5039341;28;20021;-68
2023/09/20 02:14:32;;;;;;;12.13;3.35;;;;;;;-146.27;74.10;81363.84;5044242;28;20036;-69
2023/09/20 02:16:57;;;;;;;12.98;3.78;;;;;;;-146.27;74.86;81432.13;5045058;28;20060;-68
2023/09/20 02:19:23;;;;;;;9.88;2.90;;;;;;;-146.27;74.12;81379.91;5052972;28;20025;-70
2023/09/20 02:21:48;;;;;;;9.40;2.65;;;;;;;-146.27;74.50;81448.19;5043156;28;20098;-69
2023/09/20 02:24:14;;;;;;;10.98;2.55;;;;;;;-146.27;74.41;81400.00;5043302;28;20036;-69
2023/09/20 02:26:40;;;;;;;8.20;2.60;;;;;;;-146.27;74.48;81432.13;5045898;28;20131;-71
2023/09/20 02:29:07;;;;;;;16.25;3.10;;;;;;;-146.27;74.63;81363.84;5046728;28;20021;-69
2023/09/20 02:31:33;;;;;;;14.48;2.92;;;;;;;-146.27;74.22;81371.88;5040714;28;20040;-69
2023/09/20 02:33:59;;;;;;;8.35;2.50;;;;;;;-146.27;73.82;81371.88;5044362;28;20036;-69
2023/09/20 02:36:26;;;;;;;13.65;3.38;;;;;;;-146.27;74.94;81502.41;5043185;28;20029;-70
2023/09/20 02:38:52;;;;;;;11.40;3.35;;;;;;;-146.27;75.82;81540.56;5037410;28;20029;-69
2023/09/20 02:41:17;;;;;;;15.43;3.13;;;;;;;-146.27;76.30;81572.72;5041125;28;20395;-69
2023/09/20 02:43:42;;;;;;;6.85;2.42;;;;;;;-146.27;75.40;81552.63;5047250;28;20109;-69
2023/09/20 02:46:08;;;;;;;18.60;3.05;;;;;;;-146.27;75.94;81502.41;5039085;28;20021;-69
2023/09/20 02:48:34;;;;;;;12.73;3.20;;;;;;;-146.27;74.63;81383.94;5043755;28;21792;-69
2023/09/20 02:51:00;;;;;;;11.05;2.80;;;;;;;-146.27;75.25;81520.50;5043730;28;20018;-70
2023/09/20 02:53:26;;;;;;;11.48;2.90;;;;;;;-146.27;75.31;81454.22;5045242;28;20029;-70
2023/09/20 02:55:53;;;;;;;17.50;2.83;;;;;;;-146.27;75.24;81526.53;5045533;28;20020;-69
2023/09/20 02:58:19;;;;;;;7.82;2.55;;;;;;;-146.27;75.97;81578.75;5046919;28;20029;-69
2023/09/20 03:00:50;;;;;;;5.68;2.30;;;;;;;-146.27;75.77;81522.50;5041465;28;20048;-70
2023/09/20 03:03:17;;;;;;;10.00;2.72;;;;;;;-146.27;75.86;81556.66;5043011;28;20499;-70
2023/09/20 03:05:43;;;;;;;18.10;3.38;;;;;;;-146.27;75.03;81444.19;5035046;28;20025;-70
2023/09/20 03:08:11;;;;;;;11.27;2.90;;;;;;;-146.27;75.34;81534.56;5049419;28;20086;-69
2023/09/20 03:10:38;;;;;;;7.25;2.72;;;;;;;-146.27;74.88;81464.25;5037159;28;20120;-71
2023/09/20 03:13:05;;;;;;;6.95;2.60;;;;;;;-146.27;74.88;81484.34;5044655;28;20025;-70
2023/09/20 03:15:32;;;;;;;8.10;2.75;;;;;;;-146.27;74.69;81432.13;5041388;28;20374;-70
2023/09/20 03:18:00;;;;;;;9.93;3.35;;;;;;;-146.27;75.59;81504.44;5038658;28;21174;-70
2023/09/20 03:20:26;;;;;;;11.13;2.20;;;;;;;-146.27;74.14;81416.06;5036429;28;20367;-70
2023/09/20 03:22:53;;;;;;;9.43;2.70;;;;;;;-146.27;74.58;81470.28;5043687;28;20029;-69
2023/09/20 03:25:22;;;;;;;14.63;2.67;;;;;;;-146.27;74.41;81436.16;5038536;28;20033;-69
2023/09/20 03:27:49;;;;;;;11.40;3.00;;;;;;;-146.27;74.39;81420.06;5041744;28;20016;-70
2023/09/20 03:30:16;;;;;;;10.90;2.65;;;;;;;-146.27;74.05;81424.09;5042539;28;20064;-69
2023/09/20 03:32:44;;;;;;;12.10;3.03;;;;;;;-146.27;73.58;81375.91;5041360;28;20029;-69
2023/09/20 03:35:11;;;;;;;12.80;2.70;;;;;;;-146.27;74.30;81444.19;5048734;28;20120;-69
2023/09/20 03:37:37;;;;;;;8.48;2.42;;;;;;;-146.27;74.99;81522.50;5044040;28;20033;-69
2023/09/20 03:40:10;;;;;;;8.45;3.13;;;;;;;-146.27;74.93;81404.00;5048318;28;20065;-70
2023/09/20 03:42:40;;;;;;;13.07;2.55;;;;;;;-146.27;74.39;81432.13;5040111;28;20059;-69
2023/09/20 03:45:07;;;;;;;8.55;3.00;;;;;;;-146.27;74.33;81472.28;5033942;28;20496;-69
2023/09/20 03:47:33;;;;;;;10.88;3.05;;;;;;;-146.27;75.57;81520.50;5045989;28;20060;-68
2023/09/20 03:49:58;;;;;;;9.30;2.20;;;;;;;-146.27;75.67;81556.66;5046244;28;20098;-69
2023/09/20 03:52:24;;;;;;;11.02;2.58;;;;;;;-146.27;76.17;81544.59;5037448;28;20075;-69
2023/09/20 03:54:51;;;;;;;8.63;2.47;;;;;;;-146.27;75.75;81476.31;5034005;28;20417;-68
2023/09/20 03:57:16;;;;;;;6.90;2.10;;;;;;;-146.27;74.88;81496.41;5050175;28;20384;-69
2023/09/20 03:59:42;;;;;;;8.05;2.65;;;;;;;-146.27;75.33;81492.38;5047395;28;20028;-68
2023/09/20 04:02:13;;;;;;;9.25;3.20;;;;;;;-146.27;75.19;81476.31;5043335;28;20493;-69
2023/09/20 04:04:40;;;;;;;11.05;2.53;;;;;;;-146.27;75.90;81612.88;5036308;28;20114;-70
2023/09/20 04:07:06;;;;;;;6.20;2.20;;;;;;;-146.27;76.77;81568.69;5050518;28;20025;-70
2023/09/20 04:09:32;;;;;;;15.85;2.75;;;;;;;-146.27;75.87;81550.63;5045741;28;20063;-70
2023/09/20 04:11:59;;;;;;;6.50;2.05;;;;;;;-146.27;75.09;81404.00;5050319;28;20025;-70
2023/09/20 04:14:25;;;;;;;9.02;2.25;;;;;;;-146.27;75.63;81452.22;5039894;28;20036;-69
2023/09/20 04:16:52;;;;;;;13.80;2.33;;;;;;;-146.27;75.30;81452.22;5037685;28;20025;-69
2023/09/20 04:19:21;;;;;;;9.52;3.08;;;;;;;-146.27;75.53;81480.31;5044718;28;20489;-69
2023/09/20 04:21:46;;;;;;;6.60;2.47;;;;;;;-146.27;75.95;81512.47;5041566;28;20083;-70
2023/09/20 04:24:12;;;;;;;7.07;2.53;;;;;;;-146.27;76.23;81548.59;5072410;28;20028;-70
2023/09/20 04:26:37;;;;;;;8.20;2.40;;;;;;;-146.27;75.98;81548.59;5051182;28;20029;-70
2023/09/20 04:29:03;;;;;;;11.50;2.55;;;;;;;-146.27;75.06;81478.31;5048576;28;20487;-70
2023/09/20 04:31:30;;;;;;;11.60;2.50;;;;;;;-146.27;74.93;81426.09;5046813;28;20573;-70
2023/09/20 04:33:55;;;;;;;10.63;3.15;;;;;;;-146.27;74.65;81448.19;5045906;28;20021;-71
2023/09/20 04:36:21;;;;;;;8.52;2.25;;;;;;;-146.27;75.06;81440.16;5047586;28;20025;-70
2023/09/20 04:38:46;;;;;;;10.35;2.08;;;;;;;-146.27;74.89;81532.53;5047204;28;20323;-68
2023/09/20 04:41:12;;;;;;;10.88;2.50;;;;;;;-146.27;75.20;81568.69;5047480;28;20024;-69
2023/09/20 04:43:38;;;;;;;9.07;2.63;;;;;;;-146.27;74.51;81492.38;5049379;28;20040;-69
2023/09/20 04:46:04;;;;;;;6.55;1.83;;;;;;;-146.27;75.01;81494.38;5048995;28;20025;-69
2023/09/20 04:48:30;;;;;;;9.50;2.55;;;;;;;-146.27;75.74;81572.72;5040171;28;20025;-68
2023/09/20 04:50:55;;;;;;;8.27;2.60;;;;;;;-146.27;75.84;81556.66;5045818;28;20029;-68
2023/09/20 04:53:21;;;;;;;7.50;2.22;;;;;;;-146.27;76.14;81566.69;5047499;28;20021;-67
2023/09/20 04:55:47;;;;;;;7.88;2.08;;;;;;;-146.27;75.81;81512.47;5047051;28;20123;-68
2023/09/20 04:58:12;;;;;;;10.05;3.22;;;;;;;-146.27;75.70;81560.66;5040941;28;20024;-68
2023/09/20 05:00:37;;;;;;;5.88;2.28;;;;;;;-146.27;75.29;81546.59;5041342;28;20079;-67
2023/09/20 05:03:03;;;;;;;6.40;2.55;;;;;;;-146.27;75.48;81522.50;5042485;28;20067;-68
2023/09/20 05:05:29;;;;;;;12.50;3.85;;;;;;;-146.27;75.99;81576.72;5045467;28;20036;-67
2023/09/20 05:07:56;;;;;;;12.48;2.03;;;;;;;-146.27;76.01;81580.75;5045334;28;20021;-67
2023/09/20 05:10:22;;;;;;;10.02;2.33;;;;;;;-146.27;77.09;81685.19;5037507;28;20067;-67
2023/09/20 05:12:48;;;;;;;8.27;2.28;;;;;;;-146.27;76.79;81530.53;5037983;28;20037;-67
2023/09/20 05:15:15;;;;;;;5.88;2.25;;;;;;;-146.27;76.69;81602.84;5045059;28;20527;-68
2023/09/20 05:17:41;;;;;;;9.18;2.80;;;;;;;-146.27;76.91;81592.78;5043125;28;20029;-68
2023/09/20 05:20:07;;;;;;;11.75;2.78;;;;;;;-146.27;76.75;81620.91;5038221;28;20108;-67
2023/09/20 05:22:33;;;;;;;10.27;2.80;;;;;;;-146.27;76.27;81536.56;5049116;28;20029;-67
2023/09/20 05:24:59;;;;;;;7.40;2.72;;;;;;;-146.27;76.34;81588.78;5037728;28;20128;-67
2023/09/20 05:27:24;;;;;;;9.80;2.90;;;;;;;-146.27;77.21;81600.84;5045503;28;20025;-68
2023/09/20 05:29:50;;;;;;;8.05;2.50;;;;;;;-146.27;77.67;81651.03;5049522;28;20056;-67
2023/09/20 05:32:16;;;;;;;9.48;2.85;;;;;;;-146.27;77.53;81632.97;5043776;28;20155;-68
2023/09/20 05:34:46;;;;;;;8.00;2.70;;;;;;;-146.27;77.70;81639.00;5048746;28;20041;-68
2023/09/20 05:37:11;;;;;;;9.68;2.88;;;;;;;-146.27;76.96;81592.78;5039173;28;20033;-75
2023/09/20 05:39:37;;;;;;;7.13;2.40;;;;;;;-146.27;77.23;81610.88;5030772;28;20317;-67
2023/09/20 05:42:05;;;;;;;11.77;2.53;;;;;;;-146.27;77.19;81558.66;5041330;28;20018;-68
2023/09/20 05:44:31;;;;;;;6.45;2.72;;;;;;;-146.27;77.45;81649.03;5050493;28;20039;-68
2023/09/20 05:46:56;;;;;;;9.20;2.42;;;;;;;-146.27;77.60;81608.88;5053396;28;20024;-69
2023/09/20 05:49:24;;;;;;;8.93;2.70;;;;;;;-146.27;78.60;81731.38;5045782;28;20031;-68
2023/09/20 05:51:50;;;;;;;10.70;2.97;;;;;;;-146.27;78.61;81681.16;5048792;28;20040;-67
2023/09/20 05:54:19;;;;;;;10.98;2.80;;;;;;;-146.27;77.63;81596.81;5054255;28;20391;-68
2023/09/20 05:56:45;;;;;;;11.07;3.50;;;;;;;-146.27;77.23;81574.72;5047151;28;20028;-68
2023/09/20 05:59:11;;;;;;;9.05;2.63;;;;;;;-146.27;77.06;81568.69;5051133;28;20656;-68
2023/09/20 06:01:40;;;;;;;11.60;2.45;;;;;;;-146.27;78.74;81703.25;5045534;28;20086;-70
2023/09/20 06:04:07;;;;;;;12.95;3.47;;;;;;;-146.27;78.16;81669.13;5053789;28;20451;-68
2023/09/20 06:06:33;;;;;;;8.52;2.58;;;;;;;-146.27;77.81;81636.97;5053556;28;20040;-68
2023/09/20 06:08:58;;;;;;;7.30;2.63;;;;;;;-146.27;77.72;81632.97;5043544;28;20025;-69
2023/09/20 06:11:25;;;;;;;10.05;2.50;;;;;;;-146.27;76.80;81572.72;5051010;28;20051;-68
2023/09/20 06:13:51;;;;;;;4.53;2.30;;;;;;;-146.27;77.81;81630.97;5047412;28;20025;-68
2023/09/20 06:16:17;;;;;;;5.53;1.98;;;;;;;-146.27;77.18;81628.94;5052254;28;20051;-68
2023/09/20 06:18:43;;;;;;;6.53;2.15;;;;;;;-146.27;78.23;81636.97;5059908;28;20020;-68
2023/09/20 06:21:09;;;;;;;7.00;2.72;;;;;;;-146.27;78.16;81677.16;5047086;28;20029;-68
2023/09/20 06:23:34;;;;;;;11.40;2.40;;;;;;;-146.27;77.15;81588.78;5042681;28;20075;-68
2023/09/20 06:26:10;;;;;;;9.32;2.60;;;;;;;-146.27;77.19;81584.75;5051254;28;20032;-70
2023/09/20 06:28:36;;;;;;;11.20;3.30;;;;;;;-146.27;77.71;81663.09;5045747;28;20031;-68
2023/09/20 06:31:01;;;;;;;10.65;2.80;;;;;;;-146.27;78.37;81685.19;5043651;28;20021;-68
2023/09/20 06:33:27;;;;;;;6.22;3.05;;;;;;;-146.27;78.17;81649.03;5045773;28;20477;-69
2023/09/20 06:35:55;;;;;;;8.23;2.42;;;;;;;-146.27;77.91;81614.88;5047632;28;20121;-69
2023/09/20 06:38:23;;;;;;;8.65;2.60;;;;;;;-146.27;77.97;81622.91;5044204;28;20033;-68
2023/09/20 06:40:55;;;;;;;9.45;3.08;;;;;;;-146.27;78.03;81620.91;5042807;28;20359;-68
2023/09/20 06:43:21;;;;;;;5.22;2.63;;;;;;;-146.27;78.92;81733.38;5042130;28;20043;-68
2023/09/20 06:45:51;;;;;;;6.82;2.58;;;;;;;-146.27;78.87;81701.25;5054101;28;20120;-67
2023/09/20 06:48:23;;;;;;;5.75;2.45;;;;;;;-146.27;78.49;81649.03;5039882;28;20029;-68
2023/09/20 06:50:54;;;;;;;9.00;2.40;;;;;;;-146.27;77.97;81592.78;5039404;28;20021;-68
2023/09/20 06:53:20;;;;;;;8.25;2.53;;;;;;;-146.27;77.74;81564.69;5049979;28;20035;-68
2023/09/20 06:55:48;;;;;;;10.75;2.45;;;;;;;-146.27;77.72;81596.81;5045615;28;20107;-69
2023/09/20 06:58:13;;;;;;;8.45;2.58;;;;;;;-146.27;78.10;81588.78;5032580;28;20079;-69
2023/09/20 07:00:39;;;;;;;7.35;2.50;;;;;;;-146.27;77.71;81588.78;5037222;28;20608;-68
2023/09/20 07:03:06;;;;;;;11.50;2.35;;;;;;;-146.27;79.24;81713.31;5041164;28;20088;-68
2023/09/20 07:05:32;;;;;;;10.77;3.13;;;;;;;-146.27;77.75;81562.66;5048770;28;20048;-70
2023/09/20 07:08:00;;;;;;;7.28;2.30;;;;;;;-146.27;78.99;81689.19;5050386;28;20013;-71
2023/09/20 07:10:28;;;;;;;8.25;2.20;;;;;;;-146.27;79.20;81705.28;5046028;28;20033;-69
2023/09/20 07:12:54;;;;;;;8.20;2.60;;;;;;;-146.27;78.03;81600.84;5043276;28;20453;-69
2023/09/20 07:15:20;;;;;;;6.72;2.17;;;;;;;-146.27;79.33;81725.34;5038820;28;20045;-68
2023/09/20 07:17:58;;;;;;;7.45;2.47;;;;;;;-146.27;78.58;81663.09;5043408;28;20033;-68
2023/09/20 07:20:37;;;;;;;10.23;2.30;;;;;;;-146.27;77.86;81628.94;5040188;28;20366;-69
2023/09/20 07:23:02;;;;;;;7.10;2.97;;;;;;;-146.27;78.72;81661.09;5041903;28;20082;-68
2023/09/20 07:25:28;;;;;;;5.68;2.58;;;;;;;-146.27;78.26;81626.94;5050154;28;20029;-68
2023/09/20 07:28:04;;;;;;;4.82;2.15;;;;;;;-146.27;77.96;81568.69;5042614;28;20025;-69
2023/09/20 07:30:31;;;;;;;8.40;2.65;;;;;;;-146.27;78.25;81628.94;5036713;28;20527;-69
2023/09/20 07:32:59;;;;;;;12.57;2.53;;;;;;;-146.27;78.31;81661.09;5041566;28;20029;-69
2023/09/20 07:35:28;;;;;;;3.03;2.05;;;;;;;-146.27;79.51;81771.53;5045035;28;20056;-68
2023/09/20 07:37:57;;;;;;;5.90;2.30;;;;;;;-146.27;78.19;81576.72;5035045;28;20076;-68
2023/09/20 07:40:35;;;;;;;5.13;2.33;;;;;;;-146.27;79.03;81665.09;5037820;28;20025;-69
2023/09/20 07:43:06;;;;;;;9.25;2.83;;;;;;;-146.27;78.49;81687.19;5049381;28;20048;-68
2023/09/20 07:45:41;;;;;;;5.22;2.80;;;;;;;-146.27;78.31;81673.13;5048328;28;20477;-69
2023/09/20 07:48:13;;;;;;;8.50;2.78;;;;;;;-146.27;77.98;81624.94;5050896;28;20452;-68
2023/09/20 07:50:44;;;;;;;6.55;2.15;;;;;;;-146.27;77.81;81657.06;5051258;28;20025;-69
2023/09/20 07:53:11;;;;;;;5.43;1.90;;;;;;;-146.27;77.31;81620.91;5044361;28;20364;-69
2023/09/20 07:55:41;;;;;;;6.78;2.67;;;;;;;-146.27;76.85;81622.91;5046802;28;20028;-68
2023/09/20 07:58:14;;;;;;;8.52;3.22;;;;;;;-146.27;77.38;81604.84;5046067;28;20029;-69
2023/09/20 08:00:44;;;;;;;5.57;2.63;;;;;;;-146.27;78.44;81689.19;5047536;28;20412;-69
2023/09/20 08:03:14;;;;;;;4.78;2.47;;;;;;;-146.27;79.04;81741.41;5046654;28;20481;-68
2023/09/20 08:05:41;;;;;;;7.97;2.50;;;;;;;-146.27;78.21;81636.97;5037672;28;20128;-66
2023/09/20 08:08:07;;;;;;;8.43;2.28;;;;;;;-146.27;77.22;81550.63;5044083;28;20370;-68
2023/09/20 08:10:38;;;;;;;5.22;2.65;;;;;;;-146.27;76.85;81522.50;5046419;28;20021;-67
2023/09/20 08:13:05;;;;;;;5.40;2.00;;;;;;;-146.27;78.19;81657.06;5040380;28;20021;-68
2023/09/20 08:15:36;;;;;;;6.57;2.42;;;;;;;-146.27;77.25;81592.78;5035781;28;20797;-69
2023/09/20 08:20:45;;;;;;;;;;;;;;;-146.27;76.93;81554.63;5048096;28;20079;-68
2023/09/20 09:01:36;;;;;;;6.32;2.20;;;;;;;-146.27;77.41;81562.66;5031065;28;20044;-69
2023/09/20 09:04:02;;;;;;;8.25;2.20;;;;;;;-146.27;77.12;81520.50;5030866;28;20054;-69
2023/09/20 09:06:27;;;;;;;5.75;2.50;;;;;;;-146.27;76.52;81548.59;5030576;28;20508;-69
2023/09/20 09:08:53;;;;;;;4.53;2.55;;;;;;;-146.27;77.71;81659.06;5030303;28;20056;-70
2023/09/20 09:11:19;;;;;;;7.18;2.30;;;;;;;-146.27;78.70;81683.19;5030477;28;20060;-71
2023/09/20 09:13:44;;;;;;;5.07;2.70;;;;;;;-146.27;78.47;81673.13;5030499;28;20033;-71
2023/09/20 09:16:13;;;;;;;8.02;2.70;;;;;;;-146.27;77.23;81572.72;5028943;28;20061;-71
2023/09/20 09:18:39;;;;;;;5.78;2.67;;;;;;;-146.27;78.25;81612.88;5028396;28;20030;-71
2023/09/20 09:21:06;;;;;;;6.40;2.70;;;;;;;-146.27;77.97;81574.72;5048773;28;20068;-69
2023/09/20 09:23:37;;;;;;;9.18;3.17;;;;;;;-146.27;77.86;81580.75;5038277;28;20082;-70
2023/09/20 09:26:03;;;;;;;9.93;3.92;;;;;;;-146.27;78.12;81604.84;5028981;28;20025;-70
2023/09/20 09:28:31;;;;;;;7.22;3.80;;;;;;;-146.27;77.81;81578.75;5030347;28;20021;-69
2023/09/20 09:30:57;;;;;;;9.40;2.90;;;;;;;-146.27;78.42;81657.06;5030860;28;20025;-68
2023/09/20 09:33:23;;;;;;;7.63;2.92;;;;;;;-146.27;78.21;81645.00;5030215;28;20029;-69
2023/09/20 09:35:48;;;;;;;5.50;2.30;;;;;;;-146.27;77.59;81540.56;5030110;28;20474;-69
2023/09/20 09:38:24;;;;;;;5.75;2.08;;;;;;;-146.27;76.79;81456.22;5030681;28;20393;-70
2023/09/20 09:40:53;;;;;;;5.35;3.03;;;;;;;-146.27;76.03;81476.31;5045104;28;20095;-71
2023/09/20 09:43:19;;;;;;;6.18;2.30;;;;;;;-146.27;75.85;81402.00;5050069;28;20029;-69
2023/09/20 09:45:49;;;;;;;5.40;2.53;;;;;;;-146.27;76.60;81512.47;5049964;28;20025;-70
2023/09/20 09:48:16;;;;;;;7.30;2.35;;;;;;;-146.27;75.63;81414.06;5040639;28;20024;-69
2023/09/20 09:50:46;;;;;;;5.53;2.33;;;;;;;-146.27;75.32;81430.13;5048554;28;20344;-68
2023/09/20 09:53:15;;;;;;;5.35;2.50;;;;;;;-146.27;75.44;81432.13;5048563;28;20028;-70
2023/09/20 09:55:41;;;;;;;6.28;2.50;;;;;;;-146.27;75.87;81524.50;5049464;28;20039;-70
2023/09/20 09:58:11;;;;;;;6.65;2.40;;;;;;;-146.27;75.20;81458.22;5046818;28;20096;-70
2023/09/20 10:00:39;;;;;;;9.32;2.42;;;;;;;-146.27;74.96;81387.94;5042080;28;20485;-70
2023/09/20 10:03:15;;;;;;;11.38;2.40;;;;;;;-146.27;75.07;81416.06;5031026;28;20026;-70
2023/09/20 10:05:42;;;;;;;9.45;2.15;;;;;;;-146.27;74.23;81303.59;5030648;28;20120;-70
2023/09/20 10:08:12;;;;;;;4.70;2.40;;;;;;;-146.27;73.80;81305.59;5038153;28;20049;-69
2023/09/20 10:10:37;;;;;;;6.05;2.20;;;;;;;-146.27;73.52;81259.41;5047714;28;20064;-70
2023/09/20 10:13:03;;;;;;;4.55;2.53;;;;;;;-146.27;74.08;81323.69;5042401;28;20059;-70
2023/09/20 10:15:32;;;;;;;6.18;2.30;;;;;;;-146.27;74.09;81307.63;5039405;28;20056;-70
2023/09/20 10:17:59;;;;;;;6.15;1.95;;;;;;;-146.27;73.44;81247.38;5045352;28;20424;-72
2023/09/20 10:20:54;;;;;;;5.32;1.90;;;;;;;-146.27;73.61;81243.34;5029588;28;20029;-71
2023/09/20 10:23:22;;;;;;;4.72;2.17;;;;;;;-146.27;74.97;81408.03;5038462;28;20029;-70
2023/09/20 10:25:48;;;;;;;7.63;2.50;;;;;;;-146.27;74.69;81369.88;5051023;28;20032;-70
2023/09/20 10:28:16;;;;;;;5.32;2.08;;;;;;;-146.27;74.99;81379.91;5048155;28;20016;-70
2023/09/20 10:31:02;;;;;;;5.63;2.15;;;;;;;-146.27;75.07;81375.91;5050186;28;20036;-70
2023/09/20 10:33:45;;;;;;;5.43;2.15;;;;;;;-146.27;75.31;81391.97;5041868;28;20033;-69
2023/09/20 10:36:18;;;;;;;5.45;2.70;;;;;;;-146.27;74.86;81377.91;5033529;28;20113;-68
2023/09/20 10:38:44;;;;;;;5.10;2.30;;;;;;;-146.27;76.06;81442.16;5032843;28;20112;-67
2023/09/20 10:41:12;;;;;;;5.28;2.08;;;;;;;-146.27;75.93;81432.13;5035042;28;20018;-70
2023/09/20 10:43:37;;;;;;;10.27;2.70;;;;;;;-146.27;75.68;81339.75;5040505;28;20025;-70
2023/09/20 10:46:08;;;;;;;5.25;2.42;;;;;;;-146.27;74.75;81297.56;5039477;28;20025;-70
2023/09/20 10:48:34;;;;;;;4.82;2.45;;;;;;;-146.27;74.52;81233.31;5039394;28;20043;-70
2023/09/20 10:51:03;;;;;;;7.30;2.53;;;;;;;-146.27;74.63;81281.50;5046826;28;20028;-69
2023/09/20 10:53:47;;;;;;;4.95;2.53;;;;;;;-146.27;74.25;81247.38;5050731;28;20029;-69
2023/09/20 10:56:31;;;;;;;;;;;;;;;-146.27;73.08;81074.66;5050382;28;20100;-69
2023/09/20 10:58:59;;;;;;;3.58;2.08;;;;;;;-146.27;72.88;81128.88;5044247;28;19917;-69
2023/09/20 11:01:25;;;;;;;4.28;2.47;;;;;;;-146.27;72.67;81114.81;5060492;28;20082;-69
2023/09/20 11:03:52;;;;;;;6.78;2.30;;;;;;;-146.27;72.85;81134.91;5036371;28;20073;-68
2023/09/20 11:06:17;;;;;;;3.67;2.28;;;;;;;-146.27;72.07;81110.81;5035457;28;20025;-68
2023/09/20 11:08:43;;;;;;;6.72;2.30;;;;;;;-146.27;73.23;81227.28;5045000;28;20391;-69
2023/09/20 11:11:14;;;;;;;8.90;3.00;;;;;;;-146.27;73.04;81144.94;5052024;28;20026;-68
2023/09/20 11:13:45;;;;;;;7.60;2.67;;;;;;;-146.27;73.23;81243.34;5040448;28;20031;-68
2023/09/20 11:16:10;;;;;;;8.70;2.38;;;;;;;-146.27;73.00;81126.88;5051039;28;20083;-69
2023/09/20 11:18:38;;;;;;;5.55;2.35;;;;;;;-146.27;72.71;81140.94;5033485;28;20025;-69
2023/09/20 11:21:04;;;;;;;10.07;2.80;;;;;;;-146.27;72.30;81159.00;5035264;28;20032;-69
2023/09/20 11:23:30;;;;;;;8.43;3.03;;;;;;;-146.27;72.08;81227.28;5038764;28;20077;-69
2023/09/20 11:25:58;;;;;;;6.38;2.40;;;;;;;-146.27;71.43;81128.88;5051118;28;20070;-69
2023/09/20 11:28:24;;;;;;;8.57;3.00;;;;;;;-146.27;70.83;81038.50;5054820;28;20029;-69
2023/09/20 11:30:51;;;;;;;7.57;2.58;;;;;;;-146.27;69.57;81020.44;5032117;28;20036;-68
2023/09/20 11:33:27;;;;;;;11.00;3.20;;;;;;;-146.27;68.25;80823.66;5040495;28;20031;-68
2023/09/20 11:35:53;;;;;;;5.50;2.78;;;;;;;-146.27;66.61;80689.13;5044380;28;20966;-68
2023/09/20 11:38:21;;;;;;;6.53;2.45;;;;;;;-146.27;65.56;80667.03;5043081;28;20029;-68
2023/09/20 11:40:47;;;;;;;8.13;2.53;;;;;;;-146.27;65.09;80661.00;5046566;28;20075;-69
2023/09/20 11:43:20;;;;;;;8.27;2.50;;;;;;;-146.27;64.12;80490.34;5037381;28;20126;-67
2023/09/20 11:45:47;;;;;;;;;;;;;;;-146.27;64.37;80652.97;5036735;28;20430;-68
2023/09/20 11:48:13;;;;;;;5.55;2.67;;;;;;;-146.27;63.48;80568.63;5045144;28;19920;-68
2023/09/20 11:50:44;;;;;;;8.38;2.70;;;;;;;-146.27;64.47;80763.41;5041746;28;20086;-67
2023/09/20 11:53:20;;;;;;;7.90;2.83;;;;;;;-146.27;63.49;80528.47;5044459;28;20036;-68
2023/09/20 11:55:46;;;;;;;6.88;2.33;;;;;;;-146.27;62.15;80371.88;5042943;28;20104;-67
2023/09/20 11:58:14;;;;;;;4.55;2.47;;;;;;;-146.27;61.44;80335.72;5041007;28;20119;-68